Ross, California
Current Conditions -  °F | °C
As of 7:35 PM on Saturday 24 Jan 2015 (Local Time) from KO69 Reporting Station
Broken Clouds Broken Clouds  
Wind Chill: 46°   Ceiling: 1500
Heat Index: 46°   Visibility: 6mi
Dew Point: 45°   Wind: 3mph
Humidity: 93%   Direction: 120°ESE
Pressure: 30.15"   Gusts: NA
Location:  37.96°N, 122.55°W
Report Text: KO69 250335Z AUTO 12003KT 6SM BKN015 08/07 A3015 RMK AO1
Loading
Personal Weather Stations






























Interactive Weather Map New forecast layout! Learn more

10-Day Weather Forecast

Advertisements
Track Severe Weather on mobile